sensor_id;sensor_type;location;lat;lon;timestamp;temperature;humidity
59075;DHT22;44860;53.020;6.738;2022-09-29T00:00:32;6.40;99.90
59075;DHT22;44860;53.020;6.738;2022-09-29T00:02:59;6.40;99.90
59075;DHT22;44860;53.020;6.738;2022-09-29T00:05:25;6.30;99.90
59075;DHT22;44860;53.020;6.738;2022-09-29T00:07:51;6.30;99.90
59075;DHT22;44860;53.020;6.738;2022-09-29T00:10:16;6.30;99.90
59075;DHT22;44860;53.020;6.738;2022-09-29T00:12:42;6.30;99.90
59075;DHT22;44860;53.020;6.738;2022-09-29T00:15:08;6.30;99.90
59075;DHT22;44860;53.020;6.738;2022-09-29T00:17:34;6.30;99.90
59075;DHT22;44860;53.020;6.738;2022-09-29T00:20:00;6.30;99.90
59075;DHT22;44860;53.020;6.738;2022-09-29T00:22:25;6.30;99.90
59075;DHT22;44860;53.020;6.738;2022-09-29T00:24:51;6.30;99.90
59075;DHT22;44860;53.020;6.738;2022-09-29T00:27:17;6.30;99.90
59075;DHT22;44860;53.020;6.738;2022-09-29T00:29:43;6.30;99.90
59075;DHT22;44860;53.020;6.738;2022-09-29T00:32:09;6.30;99.90
59075;DHT22;44860;53.020;6.738;2022-09-29T00:34:35;6.20;99.90
59075;DHT22;44860;53.020;6.738;2022-09-29T00:37:01;6.20;99.90
59075;DHT22;44860;53.020;6.738;2022-09-29T00:39:26;6.20;99.90
59075;DHT22;44860;53.020;6.738;2022-09-29T00:41:52;6.20;99.90
59075;DHT22;44860;53.020;6.738;2022-09-29T00:52:10;6.20;99.90
59075;DHT22;44860;53.020;6.738;2022-09-29T00:54:44;6.20;99.90
59075;DHT22;44860;53.020;6.738;2022-09-29T00:57:12;6.20;99.90
59075;DHT22;44860;53.020;6.738;2022-09-29T00:59:47;6.20;99.90
59075;DHT22;44860;53.020;6.738;2022-09-29T01:02:16;6.10;99.90
59075;DHT22;44860;53.020;6.738;2022-09-29T01:04:42;6.10;99.90
59075;DHT22;44860;53.020;6.738;2022-09-29T01:07:09;6.20;99.90
59075;DHT22;44860;53.020;6.738;2022-09-29T01:09:37;6.20;99.90
59075;DHT22;44860;53.020;6.738;2022-09-29T01:12:03;6.10;99.90
59075;DHT22;44860;53.020;6.738;2022-09-29T01:14:31;6.10;99.90
59075;DHT22;44860;53.020;6.738;2022-09-29T01:16:58;6.10;99.90
59075;DHT22;44860;53.020;6.738;2022-09-29T01:22:39;6.10;99.90
59075;DHT22;44860;53.020;6.738;2022-09-29T01:32:46;6.00;99.90
59075;DHT22;44860;53.020;6.738;2022-09-29T01:35:29;6.00;99.90
59075;DHT22;44860;53.020;6.738;2022-09-29T01:43:24;6.00;99.90
59075;DHT22;44860;53.020;6.738;2022-09-29T01:45:56;6.00;99.90
59075;DHT22;44860;53.020;6.738;2022-09-29T01:48:26;6.00;99.90
59075;DHT22;44860;53.020;6.738;2022-09-29T01:50:57;6.00;99.90
59075;DHT22;44860;53.020;6.738;2022-09-29T01:53:32;6.00;99.90
59075;DHT22;44860;53.020;6.738;2022-09-29T01:56:04;6.00;99.90
59075;DHT22;44860;53.020;6.738;2022-09-29T01:58:40;6.00;99.90
59075;DHT22;44860;53.020;6.738;2022-09-29T02:01:10;6.00;99.90
59075;DHT22;44860;53.020;6.738;2022-09-29T02:03:43;6.00;99.90
59075;DHT22;44860;53.020;6.738;2022-09-29T02:06:15;6.00;99.90
59075;DHT22;44860;53.020;6.738;2022-09-29T02:11:12;6.00;99.90
59075;DHT22;44860;53.020;6.738;2022-09-29T02:16:04;5.90;99.90
59075;DHT22;44860;53.020;6.738;2022-09-29T02:18:43;6.00;99.90
59075;DHT22;44860;53.020;6.738;2022-09-29T02:21:12;5.90;99.90
59075;DHT22;44860;53.020;6.738;2022-09-29T02:23:37;5.90;99.90
59075;DHT22;44860;53.020;6.738;2022-09-29T02:26:03;5.90;99.90
59075;DHT22;44860;53.020;6.738;2022-09-29T02:28:29;5.90;99.90
59075;DHT22;44860;53.020;6.738;2022-09-29T02:30:54;5.90;99.90
59075;DHT22;44860;53.020;6.738;2022-09-29T02:33:22;5.80;99.90
59075;DHT22;44860;53.020;6.738;2022-09-29T02:36:10;5.80;99.90
59075;DHT22;44860;53.020;6.738;2022-09-29T02:41:17;5.70;99.90
59075;DHT22;44860;53.020;6.738;2022-09-29T02:43:54;5.80;99.90
59075;DHT22;44860;53.020;6.738;2022-09-29T02:55:24;5.70;99.90
59075;DHT22;44860;53.020;6.738;2022-09-29T02:57:58;5.70;99.90
59075;DHT22;44860;53.020;6.738;2022-09-29T03:00:28;5.70;99.90
59075;DHT22;44860;53.020;6.738;2022-09-29T03:02:54;5.70;99.90
59075;DHT22;44860;53.020;6.738;2022-09-29T03:05:21;5.60;99.90
59075;DHT22;44860;53.020;6.738;2022-09-29T03:07:48;5.60;99.90
59075;DHT22;44860;53.020;6.738;2022-09-29T03:10:15;5.70;99.90
59075;DHT22;44860;53.020;6.738;2022-09-29T03:12:41;5.70;99.90
59075;DHT22;44860;53.020;6.738;2022-09-29T03:15:07;5.70;99.90
59075;DHT22;44860;53.020;6.738;2022-09-29T03:17:34;5.70;99.90
59075;DHT22;44860;53.020;6.738;2022-09-29T03:20:00;5.70;99.90
59075;DHT22;44860;53.020;6.738;2022-09-29T03:22:25;5.70;99.90
59075;DHT22;44860;53.020;6.738;2022-09-29T03:24:51;5.70;99.90
59075;DHT22;44860;53.020;6.738;2022-09-29T03:27:17;5.70;99.90
59075;DHT22;44860;53.020;6.738;2022-09-29T03:29:43;5.70;99.90
59075;DHT22;44860;53.020;6.738;2022-09-29T03:32:08;5.70;99.90
59075;DHT22;44860;53.020;6.738;2022-09-29T03:34:34;5.70;99.90
59075;DHT22;44860;53.020;6.738;2022-09-29T03:37:01;5.60;99.90
59075;DHT22;44860;53.020;6.738;2022-09-29T03:39:26;5.60;99.90
59075;DHT22;44860;53.020;6.738;2022-09-29T03:41:53;5.60;99.90
59075;DHT22;44860;53.020;6.738;2022-09-29T03:44:19;5.60;99.90
59075;DHT22;44860;53.020;6.738;2022-09-29T03:46:45;5.60;99.90
59075;DHT22;44860;53.020;6.738;2022-09-29T03:49:13;5.50;99.90
59075;DHT22;44860;53.020;6.738;2022-09-29T03:51:40;5.50;99.90
59075;DHT22;44860;53.020;6.738;2022-09-29T03:54:06;5.50;99.90
59075;DHT22;44860;53.020;6.738;2022-09-29T03:56:32;5.50;99.90
59075;DHT22;44860;53.020;6.738;2022-09-29T03:58:58;5.40;99.90
59075;DHT22;44860;53.020;6.738;2022-09-29T04:01:23;5.40;99.90
59075;DHT22;44860;53.020;6.738;2022-09-29T04:03:49;5.40;99.90
59075;DHT22;44860;53.020;6.738;2022-09-29T04:06:14;5.40;99.90
59075;DHT22;44860;53.020;6.738;2022-09-29T04:08:40;5.40;99.90
59075;DHT22;44860;53.020;6.738;2022-09-29T04:11:06;5.40;99.90
59075;DHT22;44860;53.020;6.738;2022-09-29T04:13:32;5.40;99.90
59075;DHT22;44860;53.020;6.738;2022-09-29T04:15:59;5.40;99.90
59075;DHT22;44860;53.020;6.738;2022-09-29T04:18:25;5.30;99.90
59075;DHT22;44860;53.020;6.738;2022-09-29T04:20:51;5.30;99.90
59075;DHT22;44860;53.020;6.738;2022-09-29T04:23:17;5.30;99.90
59075;DHT22;44860;53.020;6.738;2022-09-29T04:25:43;5.30;99.90
59075;DHT22;44860;53.020;6.738;2022-09-29T04:28:10;5.30;99.90
59075;DHT22;44860;53.020;6.738;2022-09-29T04:30:36;5.20;99.90
59075;DHT22;44860;53.020;6.738;2022-09-29T04:33:02;5.20;99.90
59075;DHT22;44860;53.020;6.738;2022-09-29T04:35:27;5.20;99.90
59075;DHT22;44860;53.020;6.738;2022-09-29T04:37:56;5.20;99.90
59075;DHT22;44860;53.020;6.738;2022-09-29T04:40:24;5.20;99.90
59075;DHT22;44860;53.020;6.738;2022-09-29T04:42:50;5.20;99.90
59075;DHT22;44860;53.020;6.738;2022-09-29T04:45:15;5.20;99.90
59075;DHT22;44860;53.020;6.738;2022-09-29T04:47:41;5.10;99.90
59075;DHT22;44860;53.020;6.738;2022-09-29T04:50:07;5.10;99.90
59075;DHT22;44860;53.020;6.738;2022-09-29T04:52:34;5.20;99.90
59075;DHT22;44860;53.020;6.738;2022-09-29T04:55:01;5.10;99.90
59075;DHT22;44860;53.020;6.738;2022-09-29T04:57:27;5.10;99.90
59075;DHT22;44860;53.020;6.738;2022-09-29T04:59:53;5.10;99.90
59075;DHT22;44860;53.020;6.738;2022-09-29T05:02:18;5.10;99.90
59075;DHT22;44860;53.020;6.738;2022-09-29T05:04:45;5.20;99.90
59075;DHT22;44860;53.020;6.738;2022-09-29T05:07:12;5.20;99.90
59075;DHT22;44860;53.020;6.738;2022-09-29T05:09:39;5.20;99.90
59075;DHT22;44860;53.020;6.738;2022-09-29T05:12:05;5.30;99.90
59075;DHT22;44860;53.020;6.738;2022-09-29T05:14:30;5.30;99.90
59075;DHT22;44860;53.020;6.738;2022-09-29T05:16:56;5.30;99.90
59075;DHT22;44860;53.020;6.738;2022-09-29T05:19:22;5.20;99.90
59075;DHT22;44860;53.020;6.738;2022-09-29T05:21:49;5.20;99.90
59075;DHT22;44860;53.020;6.738;2022-09-29T05:24:14;5.20;99.90
59075;DHT22;44860;53.020;6.738;2022-09-29T05:26:40;5.20;99.90
59075;DHT22;44860;53.020;6.738;2022-09-29T05:29:06;5.20;99.90
59075;DHT22;44860;53.020;6.738;2022-09-29T05:31:31;5.20;99.90
59075;DHT22;44860;53.020;6.738;2022-09-29T05:33:57;5.20;99.90
59075;DHT22;44860;53.020;6.738;2022-09-29T05:36:23;5.20;99.90
59075;DHT22;44860;53.020;6.738;2022-09-29T05:38:49;5.20;99.90
59075;DHT22;44860;53.020;6.738;2022-09-29T05:41:15;5.20;99.90
59075;DHT22;44860;53.020;6.738;2022-09-29T05:43:51;5.10;99.90
59075;DHT22;44860;53.020;6.738;2022-09-29T05:46:18;5.10;99.90
59075;DHT22;44860;53.020;6.738;2022-09-29T05:48:45;5.10;99.90
59075;DHT22;44860;53.020;6.738;2022-09-29T05:51:15;5.10;99.90
59075;DHT22;44860;53.020;6.738;2022-09-29T05:53:41;5.10;99.90
59075;DHT22;44860;53.020;6.738;2022-09-29T05:56:12;5.10;99.90
59075;DHT22;44860;53.020;6.738;2022-09-29T05:58:39;5.10;99.90
59075;DHT22;44860;53.020;6.738;2022-09-29T06:01:14;5.10;99.90
59075;DHT22;44860;53.020;6.738;2022-09-29T06:03:40;5.20;99.90
59075;DHT22;44860;53.020;6.738;2022-09-29T06:06:16;5.10;99.90
59075;DHT22;44860;53.020;6.738;2022-09-29T06:08:43;5.20;99.90
59075;DHT22;44860;53.020;6.738;2022-09-29T06:11:15;5.10;99.90
59075;DHT22;44860;53.020;6.738;2022-09-29T06:13:42;5.20;99.90
59075;DHT22;44860;53.020;6.738;2022-09-29T06:16:09;5.20;99.90
59075;DHT22;44860;53.020;6.738;2022-09-29T06:18:34;5.20;99.90
59075;DHT22;44860;53.020;6.738;2022-09-29T06:21:05;5.20;99.90
59075;DHT22;44860;53.020;6.738;2022-09-29T06:23:31;5.30;99.90
59075;DHT22;44860;53.020;6.738;2022-09-29T06:25:58;5.30;99.90
59075;DHT22;44860;53.020;6.738;2022-09-29T06:28:24;5.30;99.90
59075;DHT22;44860;53.020;6.738;2022-09-29T06:30:50;5.30;99.90
59075;DHT22;44860;53.020;6.738;2022-09-29T06:33:16;5.40;99.90
59075;DHT22;44860;53.020;6.738;2022-09-29T06:35:48;5.40;99.90
59075;DHT22;44860;53.020;6.738;2022-09-29T06:38:33;5.50;99.90
59075;DHT22;44860;53.020;6.738;2022-09-29T06:40:58;5.50;99.90
59075;DHT22;44860;53.020;6.738;2022-09-29T06:43:25;5.60;99.90
59075;DHT22;44860;53.020;6.738;2022-09-29T06:45:50;5.60;99.90
59075;DHT22;44860;53.020;6.738;2022-09-29T06:48:16;5.70;99.90
59075;DHT22;44860;53.020;6.738;2022-09-29T06:50:42;5.70;99.90
59075;DHT22;44860;53.020;6.738;2022-09-29T06:53:07;5.70;99.90
59075;DHT22;44860;53.020;6.738;2022-09-29T06:55:33;5.80;99.90
59075;DHT22;44860;53.020;6.738;2022-09-29T06:57:59;5.80;99.90
59075;DHT22;44860;53.020;6.738;2022-09-29T07:00:24;5.80;99.90
59075;DHT22;44860;53.020;6.738;2022-09-29T07:02:50;5.80;99.90
59075;DHT22;44860;53.020;6.738;2022-09-29T07:05:16;5.90;99.90
59075;DHT22;44860;53.020;6.738;2022-09-29T07:07:42;5.90;99.90
59075;DHT22;44860;53.020;6.738;2022-09-29T07:10:08;5.90;99.90
59075;DHT22;44860;53.020;6.738;2022-09-29T07:12:33;6.00;99.90
59075;DHT22;44860;53.020;6.738;2022-09-29T07:14:59;6.10;99.90
59075;DHT22;44860;53.020;6.738;2022-09-29T07:17:25;6.10;99.90
59075;DHT22;44860;53.020;6.738;2022-09-29T07:19:50;6.20;99.90
59075;DHT22;44860;53.020;6.738;2022-09-29T07:22:19;6.20;99.90
59075;DHT22;44860;53.020;6.738;2022-09-29T07:24:44;6.30;99.90
59075;DHT22;44860;53.020;6.738;2022-09-29T07:27:12;6.40;99.90
59075;DHT22;44860;53.020;6.738;2022-09-29T07:29:37;6.40;99.90
59075;DHT22;44860;53.020;6.738;2022-09-29T07:32:03;6.50;99.90
59075;DHT22;44860;53.020;6.738;2022-09-29T07:34:29;6.50;99.90
59075;DHT22;44860;53.020;6.738;2022-09-29T07:36:54;6.60;99.90
59075;DHT22;44860;53.020;6.738;2022-09-29T07:39:20;6.60;99.90
59075;DHT22;44860;53.020;6.738;2022-09-29T07:41:47;6.60;99.90
59075;DHT22;44860;53.020;6.738;2022-09-29T07:44:12;6.70;99.90
59075;DHT22;44860;53.020;6.738;2022-09-29T07:46:38;6.80;99.90
59075;DHT22;44860;53.020;6.738;2022-09-29T07:49:04;6.80;99.90
59075;DHT22;44860;53.020;6.738;2022-09-29T07:51:30;6.90;99.90
59075;DHT22;44860;53.020;6.738;2022-09-29T07:54:01;7.00;99.90
59075;DHT22;44860;53.020;6.738;2022-09-29T07:56:29;7.10;99.90
59075;DHT22;44860;53.020;6.738;2022-09-29T07:58:55;7.10;99.90
59075;DHT22;44860;53.020;6.738;2022-09-29T08:01:21;7.20;99.90
59075;DHT22;44860;53.020;6.738;2022-09-29T08:03:52;7.30;99.90
59075;DHT22;44860;53.020;6.738;2022-09-29T08:06:19;7.40;99.90
59075;DHT22;44860;53.020;6.738;2022-09-29T08:08:46;7.50;99.90
59075;DHT22;44860;53.020;6.738;2022-09-29T08:11:14;7.60;99.90
59075;DHT22;44860;53.020;6.738;2022-09-29T08:13:40;7.70;99.90
59075;DHT22;44860;53.020;6.738;2022-09-29T08:16:09;7.80;99.90
59075;DHT22;44860;53.020;6.738;2022-09-29T08:18:35;7.80;99.90
59075;DHT22;44860;53.020;6.738;2022-09-29T08:21:01;7.90;99.90
59075;DHT22;44860;53.020;6.738;2022-09-29T08:23:28;8.00;99.90
59075;DHT22;44860;53.020;6.738;2022-09-29T08:26:02;8.10;99.90
59075;DHT22;44860;53.020;6.738;2022-09-29T08:28:29;8.20;99.90
59075;DHT22;44860;53.020;6.738;2022-09-29T08:30:55;8.30;99.90
59075;DHT22;44860;53.020;6.738;2022-09-29T08:33:21;8.40;99.90
59075;DHT22;44860;53.020;6.738;2022-09-29T08:35:54;8.50;99.90
59075;DHT22;44860;53.020;6.738;2022-09-29T08:38:20;8.50;99.90
59075;DHT22;44860;53.020;6.738;2022-09-29T08:40:46;8.60;99.90
59075;DHT22;44860;53.020;6.738;2022-09-29T08:43:28;8.70;99.90
59075;DHT22;44860;53.020;6.738;2022-09-29T08:46:09;8.80;99.90
59075;DHT22;44860;53.020;6.738;2022-09-29T08:48:41;8.90;99.90
59075;DHT22;44860;53.020;6.738;2022-09-29T08:51:33;9.00;99.90
59075;DHT22;44860;53.020;6.738;2022-09-29T08:54:07;9.10;99.90
59075;DHT22;44860;53.020;6.738;2022-09-29T08:56:34;9.10;99.90
59075;DHT22;44860;53.020;6.738;2022-09-29T08:59:00;9.30;99.90
59075;DHT22;44860;53.020;6.738;2022-09-29T09:04:22;9.50;99.90
59075;DHT22;44860;53.020;6.738;2022-09-29T09:17:33;10.00;99.90
59075;DHT22;44860;53.020;6.738;2022-09-29T09:20:31;10.10;99.90
59075;DHT22;44860;53.020;6.738;2022-09-29T09:26:07;10.20;99.90
59075;DHT22;44860;53.020;6.738;2022-09-29T09:28:45;10.40;99.90
59075;DHT22;44860;53.020;6.738;2022-09-29T09:33:56;10.70;99.90
59075;DHT22;44860;53.020;6.738;2022-09-29T09:36:38;10.80;99.90
59075;DHT22;44860;53.020;6.738;2022-09-29T09:39:14;10.90;99.90
59075;DHT22;44860;53.020;6.738;2022-09-29T09:41:44;11.00;99.90
59075;DHT22;44860;53.020;6.738;2022-09-29T09:44:23;11.00;99.90
59075;DHT22;44860;53.020;6.738;2022-09-29T09:47:17;11.10;99.90
59075;DHT22;44860;53.020;6.738;2022-09-29T09:49:48;11.20;99.90
59075;DHT22;44860;53.020;6.738;2022-09-29T09:52:28;11.30;99.90
59075;DHT22;44860;53.020;6.738;2022-09-29T09:55:02;11.30;99.90
59075;DHT22;44860;53.020;6.738;2022-09-29T09:57:50;11.50;99.90
59075;DHT22;44860;53.020;6.738;2022-09-29T10:00:24;11.60;99.90
59075;DHT22;44860;53.020;6.738;2022-09-29T10:02:53;11.70;99.90
59075;DHT22;44860;53.020;6.738;2022-09-29T10:05:22;11.80;99.90
59075;DHT22;44860;53.020;6.738;2022-09-29T10:07:52;11.80;99.90
59075;DHT22;44860;53.020;6.738;2022-09-29T10:10:24;11.90;99.90
59075;DHT22;44860;53.020;6.738;2022-09-29T10:15:25;12.00;99.90
59075;DHT22;44860;53.020;6.738;2022-09-29T10:18:26;12.10;99.90
59075;DHT22;44860;53.020;6.738;2022-09-29T10:20:54;12.10;99.90
59075;DHT22;44860;53.020;6.738;2022-09-29T10:26:11;12.40;99.90
59075;DHT22;44860;53.020;6.738;2022-09-29T10:28:46;12.50;99.90
59075;DHT22;44860;53.020;6.738;2022-09-29T10:34:04;12.70;99.90
59075;DHT22;44860;53.020;6.738;2022-09-29T10:36:54;12.80;99.90
59075;DHT22;44860;53.020;6.738;2022-09-29T10:41:55;12.90;99.90
59075;DHT22;44860;53.020;6.738;2022-09-29T10:44:21;13.00;99.90
59075;DHT22;44860;53.020;6.738;2022-09-29T10:46:51;13.10;99.90
59075;DHT22;44860;53.020;6.738;2022-09-29T10:49:19;13.20;99.90
59075;DHT22;44860;53.020;6.738;2022-09-29T10:52:14;13.30;99.90
59075;DHT22;44860;53.020;6.738;2022-09-29T10:54:56;13.30;99.90
59075;DHT22;44860;53.020;6.738;2022-09-29T10:57:26;13.30;99.90
59075;DHT22;44860;53.020;6.738;2022-09-29T10:59:53;13.30;99.90
59075;DHT22;44860;53.020;6.738;2022-09-29T11:02:25;13.30;99.90
59075;DHT22;44860;53.020;6.738;2022-09-29T11:04:55;13.40;99.90
59075;DHT22;44860;53.020;6.738;2022-09-29T11:07:22;13.50;99.90
59075;DHT22;44860;53.020;6.738;2022-09-29T11:09:48;13.60;99.90
59075;DHT22;44860;53.020;6.738;2022-09-29T11:12:33;13.70;99.90
59075;DHT22;44860;53.020;6.738;2022-09-29T11:15:22;13.80;99.90
59075;DHT22;44860;53.020;6.738;2022-09-29T11:17:50;13.90;99.90
59075;DHT22;44860;53.020;6.738;2022-09-29T11:20:16;14.00;99.90
59075;DHT22;44860;53.020;6.738;2022-09-29T11:25:20;14.30;99.90
59075;DHT22;44860;53.020;6.738;2022-09-29T11:33:12;14.70;99.90
59075;DHT22;44860;53.020;6.738;2022-09-29T11:35:53;14.70;99.90
59075;DHT22;44860;53.020;6.738;2022-09-29T11:44:23;14.80;99.90
59075;DHT22;44860;53.020;6.738;2022-09-29T11:55:26;15.20;99.90
59075;DHT22;44860;53.020;6.738;2022-09-29T12:09:18;15.60;99.90
59075;DHT22;44860;53.020;6.738;2022-09-29T12:17:35;15.60;99.90
59075;DHT22;44860;53.020;6.738;2022-09-29T12:20:07;15.60;99.90
59075;DHT22;44860;53.020;6.738;2022-09-29T12:22:38;15.70;99.90
59075;DHT22;44860;53.020;6.738;2022-09-29T12:25:05;15.60;99.90
59075;DHT22;44860;53.020;6.738;2022-09-29T12:27:36;15.70;99.90
59075;DHT22;44860;53.020;6.738;2022-09-29T12:30:19;15.70;99.90
59075;DHT22;44860;53.020;6.738;2022-09-29T12:38:27;16.00;99.90
59075;DHT22;44860;53.020;6.738;2022-09-29T12:41:20;16.10;99.90
59075;DHT22;44860;53.020;6.738;2022-09-29T12:43:48;16.00;99.90
59075;DHT22;44860;53.020;6.738;2022-09-29T12:51:43;15.70;99.90
59075;DHT22;44860;53.020;6.738;2022-09-29T12:57:05;15.60;99.90
59075;DHT22;44860;53.020;6.738;2022-09-29T13:14:15;15.40;99.90
59075;DHT22;44860;53.020;6.738;2022-09-29T13:17:12;15.40;99.90
59075;DHT22;44860;53.020;6.738;2022-09-29T13:28:31;15.30;99.90
59075;DHT22;44860;53.020;6.738;2022-09-29T13:31:05;15.30;99.90
59075;DHT22;44860;53.020;6.738;2022-09-29T13:33:33;15.30;99.90
59075;DHT22;44860;53.020;6.738;2022-09-29T13:35:59;15.40;99.90
59075;DHT22;44860;53.020;6.738;2022-09-29T13:38:29;15.50;99.90
59075;DHT22;44860;53.020;6.738;2022-09-29T13:51:55;15.80;99.90
59075;DHT22;44860;53.020;6.738;2022-09-29T13:54:42;15.80;99.90
59075;DHT22;44860;53.020;6.738;2022-09-29T13:59:43;15.70;99.90
59075;DHT22;44860;53.020;6.738;2022-09-29T14:02:33;15.70;99.90
59075;DHT22;44860;53.020;6.738;2022-09-29T14:04:59;15.60;99.90
59075;DHT22;44860;53.020;6.738;2022-09-29T14:07:44;15.50;99.90
59075;DHT22;44860;53.020;6.738;2022-09-29T14:15:48;15.30;99.90
59075;DHT22;44860;53.020;6.738;2022-09-29T14:18:37;15.30;99.90
59075;DHT22;44860;53.020;6.738;2022-09-29T14:21:08;15.20;99.90
59075;DHT22;44860;53.020;6.738;2022-09-29T14:26:46;15.10;99.90
59075;DHT22;44860;53.020;6.738;2022-09-29T14:29:27;15.00;99.90
59075;DHT22;44860;53.020;6.738;2022-09-29T14:31:56;15.00;99.90
59075;DHT22;44860;53.020;6.738;2022-09-29T14:34:28;15.00;99.90
59075;DHT22;44860;53.020;6.738;2022-09-29T14:36:56;14.90;99.90
59075;DHT22;44860;53.020;6.738;2022-09-29T14:39:23;14.80;99.90
59075;DHT22;44860;53.020;6.738;2022-09-29T14:41:49;14.80;99.90
59075;DHT22;44860;53.020;6.738;2022-09-29T14:44:28;14.80;99.90
59075;DHT22;44860;53.020;6.738;2022-09-29T14:47:23;14.80;99.90
59075;DHT22;44860;53.020;6.738;2022-09-29T14:50:40;14.80;99.90
59075;DHT22;44860;53.020;6.738;2022-09-29T14:58:56;14.70;99.90
59075;DHT22;44860;53.020;6.738;2022-09-29T15:01:27;14.70;99.90
59075;DHT22;44860;53.020;6.738;2022-09-29T15:04:03;14.70;99.90
59075;DHT22;44860;53.020;6.738;2022-09-29T15:06:30;14.60;99.90
59075;DHT22;44860;53.020;6.738;2022-09-29T15:13:56;14.60;99.90
59075;DHT22;44860;53.020;6.738;2022-09-29T15:19:53;14.50;99.90
59075;DHT22;44860;53.020;6.738;2022-09-29T15:23:08;14.60;99.90
59075;DHT22;44860;53.020;6.738;2022-09-29T15:25:40;14.60;99.90
59075;DHT22;44860;53.020;6.738;2022-09-29T15:28:17;14.70;99.90
59075;DHT22;44860;53.020;6.738;2022-09-29T15:30:44;14.70;99.90
59075;DHT22;44860;53.020;6.738;2022-09-29T15:35:47;14.80;99.90
59075;DHT22;44860;53.020;6.738;2022-09-29T15:38:25;14.80;99.90
59075;DHT22;44860;53.020;6.738;2022-09-29T15:41:00;14.70;99.90
59075;DHT22;44860;53.020;6.738;2022-09-29T15:49:05;14.60;99.90
59075;DHT22;44860;53.020;6.738;2022-09-29T15:51:35;14.60;99.90
59075;DHT22;44860;53.020;6.738;2022-09-29T15:54:02;14.50;99.90
59075;DHT22;44860;53.020;6.738;2022-09-29T15:56:35;14.40;99.90
59075;DHT22;44860;53.020;6.738;2022-09-29T16:02:04;14.10;99.90
59075;DHT22;44860;53.020;6.738;2022-09-29T16:04:31;14.00;99.90
59075;DHT22;44860;53.020;6.738;2022-09-29T16:06:57;13.90;99.90
59075;DHT22;44860;53.020;6.738;2022-09-29T16:09:23;13.80;99.90
59075;DHT22;44860;53.020;6.738;2022-09-29T16:11:49;13.70;99.90
59075;DHT22;44860;53.020;6.738;2022-09-29T16:14:33;13.60;99.90
59075;DHT22;44860;53.020;6.738;2022-09-29T16:16:58;13.50;99.90
59075;DHT22;44860;53.020;6.738;2022-09-29T16:19:29;13.40;99.90
59075;DHT22;44860;53.020;6.738;2022-09-29T16:21:59;13.40;99.90
59075;DHT22;44860;53.020;6.738;2022-09-29T16:24:33;13.30;99.90
59075;DHT22;44860;53.020;6.738;2022-09-29T16:26:59;13.20;99.90
59075;DHT22;44860;53.020;6.738;2022-09-29T16:29:32;13.10;99.90
59075;DHT22;44860;53.020;6.738;2022-09-29T16:38:22;12.90;99.90
59075;DHT22;44860;53.020;6.738;2022-09-29T16:40:49;12.90;99.90
59075;DHT22;44860;53.020;6.738;2022-09-29T16:43:26;12.90;99.90
59075;DHT22;44860;53.020;6.738;2022-09-29T16:45:54;12.80;99.90
59075;DHT22;44860;53.020;6.738;2022-09-29T16:48:23;12.80;99.90
59075;DHT22;44860;53.020;6.738;2022-09-29T16:50:53;12.70;99.90
59075;DHT22;44860;53.020;6.738;2022-09-29T16:53:38;12.70;99.90
59075;DHT22;44860;53.020;6.738;2022-09-29T16:56:17;12.70;99.90
59075;DHT22;44860;53.020;6.738;2022-09-29T16:59:02;12.70;99.90
59075;DHT22;44860;53.020;6.738;2022-09-29T17:01:28;12.60;99.90
59075;DHT22;44860;53.020;6.738;2022-09-29T17:03:54;12.70;99.90
59075;DHT22;44860;53.020;6.738;2022-09-29T17:06:20;12.60;99.90
59075;DHT22;44860;53.020;6.738;2022-09-29T17:08:46;12.60;99.90
59075;DHT22;44860;53.020;6.738;2022-09-29T17:11:11;12.60;99.90
59075;DHT22;44860;53.020;6.738;2022-09-29T17:13:37;12.60;99.90
59075;DHT22;44860;53.020;6.738;2022-09-29T17:16:04;12.50;99.90
59075;DHT22;44860;53.020;6.738;2022-09-29T17:18:32;12.50;99.90
59075;DHT22;44860;53.020;6.738;2022-09-29T17:20:57;12.50;99.90
59075;DHT22;44860;53.020;6.738;2022-09-29T17:23:23;12.50;99.90
59075;DHT22;44860;53.020;6.738;2022-09-29T17:25:49;12.50;99.90
59075;DHT22;44860;53.020;6.738;2022-09-29T17:28:19;12.50;99.90
59075;DHT22;44860;53.020;6.738;2022-09-29T17:30:48;12.40;99.90
59075;DHT22;44860;53.020;6.738;2022-09-29T17:33:16;12.40;99.90
59075;DHT22;44860;53.020;6.738;2022-09-29T17:35:48;12.40;99.90
59075;DHT22;44860;53.020;6.738;2022-09-29T17:38:16;12.40;99.90
59075;DHT22;44860;53.020;6.738;2022-09-29T17:40:49;12.30;99.90
59075;DHT22;44860;53.020;6.738;2022-09-29T17:43:16;12.30;99.90
59075;DHT22;44860;53.020;6.738;2022-09-29T17:45:42;12.30;99.90
59075;DHT22;44860;53.020;6.738;2022-09-29T17:48:09;12.30;99.90
59075;DHT22;44860;53.020;6.738;2022-09-29T17:50:35;12.30;99.90
59075;DHT22;44860;53.020;6.738;2022-09-29T17:53:03;12.20;99.90
59075;DHT22;44860;53.020;6.738;2022-09-29T17:55:30;12.20;99.90
59075;DHT22;44860;53.020;6.738;2022-09-29T17:57:56;12.20;99.90
59075;DHT22;44860;53.020;6.738;2022-09-29T18:00:36;12.20;99.90
59075;DHT22;44860;53.020;6.738;2022-09-29T18:03:06;12.20;99.90
59075;DHT22;44860;53.020;6.738;2022-09-29T18:05:34;12.10;99.90
59075;DHT22;44860;53.020;6.738;2022-09-29T18:08:01;12.10;99.90
59075;DHT22;44860;53.020;6.738;2022-09-29T18:12:56;12.10;99.90
59075;DHT22;44860;53.020;6.738;2022-09-29T18:15:23;12.10;99.90
59075;DHT22;44860;53.020;6.738;2022-09-29T18:17:53;12.10;99.90
59075;DHT22;44860;53.020;6.738;2022-09-29T18:20:20;12.10;99.90
59075;DHT22;44860;53.020;6.738;2022-09-29T18:22:47;12.00;99.90
59075;DHT22;44860;53.020;6.738;2022-09-29T18:25:16;12.00;99.90
59075;DHT22;44860;53.020;6.738;2022-09-29T18:27:44;12.00;99.90
59075;DHT22;44860;53.020;6.738;2022-09-29T18:32:55;11.90;99.90
59075;DHT22;44860;53.020;6.738;2022-09-29T18:35:31;11.90;99.90
59075;DHT22;44860;53.020;6.738;2022-09-29T18:37:58;11.80;99.90
59075;DHT22;44860;53.020;6.738;2022-09-29T18:40:25;11.90;99.90
59075;DHT22;44860;53.020;6.738;2022-09-29T18:42:52;11.80;99.90
59075;DHT22;44860;53.020;6.738;2022-09-29T18:45:21;11.80;99.90
59075;DHT22;44860;53.020;6.738;2022-09-29T18:47:51;11.80;99.90
59075;DHT22;44860;53.020;6.738;2022-09-29T18:50:22;11.80;99.90
59075;DHT22;44860;53.020;6.738;2022-09-29T18:52:49;11.80;99.90
59075;DHT22;44860;53.020;6.738;2022-09-29T18:55:17;11.80;99.90
59075;DHT22;44860;53.020;6.738;2022-09-29T18:57:46;11.70;99.90
59075;DHT22;44860;53.020;6.738;2022-09-29T19:00:14;11.70;99.90
59075;DHT22;44860;53.020;6.738;2022-09-29T19:02:41;11.70;99.90
59075;DHT22;44860;53.020;6.738;2022-09-29T19:05:18;11.70;99.90
59075;DHT22;44860;53.020;6.738;2022-09-29T19:07:47;11.60;99.90
59075;DHT22;44860;53.020;6.738;2022-09-29T19:10:15;11.60;99.90
59075;DHT22;44860;53.020;6.738;2022-09-29T19:12:42;11.60;99.90
59075;DHT22;44860;53.020;6.738;2022-09-29T19:15:13;11.50;99.90
59075;DHT22;44860;53.020;6.738;2022-09-29T19:17:39;11.50;99.90
59075;DHT22;44860;53.020;6.738;2022-09-29T19:20:05;11.50;99.90
59075;DHT22;44860;53.020;6.738;2022-09-29T19:22:31;11.50;99.90